createdAt,value
2023-05-11T00:01:31.182Z,100775.45
2023-05-11T00:04:02.924Z,100771.00
2023-05-11T00:06:34.165Z,100766.98
2023-05-11T00:09:06.040Z,100769.65
2023-05-11T00:11:37.462Z,100764.88
2023-05-11T00:14:08.981Z,100769.11
2023-05-11T00:16:40.299Z,100773.98
2023-05-11T00:19:11.589Z,100774.10
2023-05-11T00:21:42.817Z,100772.42
2023-05-11T00:24:14.778Z,100769.40
2023-05-11T00:26:46.080Z,100767.81
2023-05-11T00:29:17.841Z,100769.34
2023-05-11T00:31:50.319Z,100768.86
2023-05-11T00:34:22.280Z,100768.92
2023-05-11T00:36:54.038Z,100770.69
2023-05-11T00:39:25.470Z,100775.96
2023-05-11T00:41:57.313Z,100772.96
2023-05-11T00:44:28.757Z,100774.91
2023-05-11T00:47:00.199Z,100774.16
2023-05-11T00:49:31.878Z,100778.97
2023-05-11T00:52:04.207Z,100778.19
2023-05-11T00:54:36.949Z,100783.70
2023-05-11T00:57:08.699Z,100790.00
2023-05-11T00:59:40.355Z,100798.77
2023-05-11T01:02:12.437Z,100795.78
2023-05-11T01:04:44.098Z,100799.01
2023-05-11T01:07:22.427Z,100804.00
2023-05-11T01:10:01.894Z,100803.44
2023-05-11T01:12:41.845Z,100807.56
2023-05-11T01:15:16.426Z,100809.34
2023-05-11T01:17:55.594Z,100811.52
2023-05-11T01:20:30.792Z,100804.45
2023-05-11T01:23:25.717Z,100807.23
2023-05-11T01:26:24.602Z,100807.09
2023-05-11T01:29:22.697Z,100805.11
2023-05-11T01:31:56.800Z,100803.11
2023-05-11T01:34:31.687Z,100801.29
2023-05-11T01:37:11.196Z,100800.52
2023-05-11T01:39:50.820Z,100797.87
2023-05-11T01:42:27.461Z,100797.48
2023-05-11T01:45:01.967Z,100792.03
2023-05-11T01:47:36.629Z,100791.59
2023-05-11T01:50:11.647Z,100778.45
2023-05-11T01:52:46.489Z,100770.15
2023-05-11T01:55:22.550Z,100765.48
2023-05-11T01:57:57.017Z,100761.79
2023-05-11T02:00:28.717Z,100762.27
2023-05-11T02:03:03.076Z,100755.37
2023-05-11T02:05:36.480Z,100750.19
2023-05-11T02:08:09.871Z,100748.39
2023-05-11T02:10:42.820Z,100747.62
2023-05-11T02:13:16.458Z,100748.77
2023-05-11T02:15:52.270Z,100755.47
2023-05-11T02:18:24.484Z,100757.46
2023-05-11T02:21:02.774Z,100752.58
2023-05-11T02:23:37.479Z,100756.04
2023-05-11T02:26:10.024Z,100754.88
2023-05-11T02:28:41.827Z,100749.15
2023-05-11T02:31:18.515Z,100745.30
2023-05-11T02:33:52.951Z,100736.83
2023-05-11T02:36:26.888Z,100731.67
2023-05-11T02:39:07.120Z,100720.84
2023-05-11T02:41:44.794Z,100705.70
2023-05-11T02:44:18.845Z,100691.47
2023-05-11T02:46:53.266Z,100675.25
2023-05-11T02:49:28.283Z,100667.74
2023-05-11T02:52:02.479Z,100668.86
2023-05-11T02:54:36.154Z,100670.42
2023-05-11T02:57:08.014Z,100670.77
2023-05-11T02:59:40.875Z,100675.80
2023-05-11T03:02:12.435Z,100682.52
2023-05-11T03:04:44.207Z,100680.08
2023-05-11T03:07:15.552Z,100677.66
2023-05-11T03:09:46.938Z,100669.30
2023-05-11T03:12:18.969Z,100671.00
2023-05-11T03:14:51.965Z,100671.69
2023-05-11T03:17:24.433Z,100671.35
2023-05-11T03:19:58.160Z,100671.91
2023-05-11T03:22:31.188Z,100667.58
2023-05-11T03:25:04.219Z,100662.88
2023-05-11T03:27:37.013Z,100664.99
2023-05-11T03:30:12.882Z,100657.41
2023-05-11T03:32:47.344Z,100646.58
2023-05-11T03:35:19.587Z,100642.14
2023-05-11T03:37:52.662Z,100642.46
2023-05-11T03:40:25.839Z,100640.17
2023-05-11T03:43:00.884Z,100638.87
2023-05-11T03:45:34.586Z,100649.38
2023-05-11T03:48:10.143Z,100653.14
2023-05-11T03:50:43.091Z,100651.79
2023-05-11T03:53:14.993Z,100647.14
2023-05-11T03:55:47.489Z,100647.13
2023-05-11T03:58:18.933Z,100651.72
2023-05-11T04:00:51.912Z,100652.09
2023-05-11T04:03:23.413Z,100649.83
2023-05-11T04:05:54.906Z,100649.81
2023-05-11T04:08:26.432Z,100641.33
2023-05-11T04:10:57.733Z,100642.98
2023-05-11T04:13:29.308Z,100643.09
2023-05-11T04:16:00.751Z,100644.10
2023-05-11T04:18:32.337Z,100647.08
2023-05-11T04:21:03.828Z,100650.98
2023-05-11T04:23:35.506Z,100647.22
2023-05-11T04:26:06.617Z,100640.04
2023-05-11T04:28:38.175Z,100638.36
2023-05-11T04:31:10.575Z,100637.89
2023-05-11T04:33:43.154Z,100637.44
2023-05-11T04:36:15.032Z,100642.29
2023-05-11T04:38:46.682Z,100638.44
2023-05-11T04:41:19.129Z,100645.56
2023-05-11T04:43:50.983Z,100645.16
2023-05-11T04:46:23.211Z,100646.55
2023-05-11T04:48:55.654Z,100645.96
2023-05-11T04:51:27.387Z,100651.77
2023-05-11T04:53:58.807Z,100655.06
2023-05-11T04:56:30.252Z,100660.83
2023-05-11T04:59:02.482Z,100659.73
2023-05-11T05:01:35.467Z,100663.05
2023-05-11T05:04:07.434Z,100664.34
2023-05-11T05:06:38.557Z,100669.33
2023-05-11T05:09:10.366Z,100668.09
2023-05-11T05:11:41.868Z,100671.48
2023-05-11T05:14:13.078Z,100668.63
2023-05-11T05:16:44.873Z,100670.80
2023-05-11T05:19:16.671Z,100672.86
2023-05-11T05:21:48.424Z,100676.02
2023-05-11T05:24:20.065Z,100673.52
2023-05-11T05:26:51.610Z,100677.61
2023-05-11T05:29:23.181Z,100676.90
2023-05-11T05:31:55.426Z,100676.19
2023-05-11T05:34:28.842Z,100675.47
2023-05-11T05:37:00.391Z,100672.89
2023-05-11T05:39:32.421Z,100670.17
2023-05-11T05:42:04.589Z,100672.63
2023-05-11T05:44:36.256Z,100674.77
2023-05-11T05:47:08.525Z,100680.63
2023-05-11T05:49:41.459Z,100682.24
2023-05-11T05:52:13.138Z,100687.13
2023-05-11T05:54:45.047Z,100685.16
2023-05-11T05:57:17.546Z,100684.56
2023-05-11T05:59:49.465Z,100690.14
2023-05-11T06:02:23.199Z,100688.31
2023-05-11T06:04:54.916Z,100689.52
2023-05-11T06:07:26.488Z,100688.81
2023-05-11T06:09:57.534Z,100691.48
2023-05-11T06:12:28.908Z,100690.70
2023-05-11T06:15:01.089Z,100694.45
2023-05-11T06:17:33.572Z,100692.19
2023-05-11T06:20:06.152Z,100698.39
2023-05-11T06:22:37.913Z,100696.30
2023-05-11T06:25:11.154Z,100696.45
2023-05-11T06:27:42.996Z,100697.79
2023-05-11T06:30:16.600Z,100699.44
2023-05-11T06:32:50.053Z,100694.54
2023-05-11T06:35:22.688Z,100691.27
2023-05-11T06:37:54.668Z,100695.87
2023-05-11T06:40:26.952Z,100697.15
2023-05-11T06:42:57.911Z,100696.86
2023-05-11T06:45:41.862Z,100697.38
2023-05-11T06:48:14.433Z,100700.73
2023-05-11T06:50:45.963Z,100699.77
2023-05-11T06:53:18.254Z,100701.54
2023-05-11T06:55:50.404Z,100702.35
2023-05-11T06:58:21.728Z,100701.64
2023-05-11T07:00:53.475Z,100699.61
2023-05-11T07:03:25.435Z,100701.02
2023-05-11T07:05:57.224Z,100697.09
2023-05-11T07:08:28.732Z,100698.36
2023-05-11T07:11:00.226Z,100702.09
2023-05-11T07:13:32.249Z,100703.69
2023-05-11T07:16:04.419Z,100707.21
2023-05-11T07:18:35.944Z,100706.63
2023-05-11T07:21:07.296Z,100709.75
2023-05-11T07:23:38.694Z,100708.48
2023-05-11T07:26:10.311Z,100710.73
2023-05-11T07:28:41.797Z,100711.37
2023-05-11T07:31:13.317Z,100709.28
2023-05-11T07:33:45.134Z,100705.16
2023-05-11T07:36:17.307Z,100707.98
2023-05-11T07:38:48.651Z,100705.72
2023-05-11T07:41:21.436Z,100710.14
2023-05-11T07:43:53.224Z,100714.08
2023-05-11T07:46:24.609Z,100716.44
2023-05-11T07:49:13.623Z,100710.38
2023-05-11T07:51:48.026Z,100714.46
2023-05-11T07:54:21.065Z,100711.73
2023-05-11T07:56:53.652Z,100708.59
2023-05-11T07:59:25.038Z,100710.16
2023-05-11T08:01:56.739Z,100716.86
2023-05-11T08:04:30.602Z,100712.06
2023-05-11T08:07:01.682Z,100712.83
2023-05-11T08:09:33.484Z,100713.45
2023-05-11T08:12:05.405Z,100708.59
2023-05-11T08:14:36.694Z,100711.31
2023-05-11T08:17:08.280Z,100709.85
2023-05-11T08:19:39.711Z,100710.96
2023-05-11T08:22:11.268Z,100712.42
2023-05-11T08:24:42.930Z,100711.98
2023-05-11T08:27:15.487Z,100710.83
2023-05-11T08:29:47.267Z,100707.42
2023-05-11T08:32:18.783Z,100706.66
2023-05-11T08:34:50.164Z,100701.61
2023-05-11T08:37:21.884Z,100696.00
2023-05-11T08:39:53.067Z,100698.98
2023-05-11T08:42:26.555Z,100703.42
2023-05-11T08:44:59.420Z,100696.59
2023-05-11T08:47:32.806Z,100698.08
2023-05-11T08:50:04.488Z,100702.30
2023-05-11T08:52:36.463Z,100697.52
2023-05-11T08:55:09.323Z,100700.38
2023-05-11T08:57:42.660Z,100703.45
2023-05-11T09:00:16.506Z,100698.88
2023-05-11T09:02:48.662Z,100700.64
2023-05-11T09:05:21.760Z,100696.94
2023-05-11T09:07:56.202Z,100706.22
2023-05-11T09:10:28.163Z,100703.89
2023-05-11T09:13:00.084Z,100703.02
2023-05-11T09:15:37.163Z,100698.94
2023-05-11T09:18:10.168Z,100699.48
2023-05-11T09:20:46.125Z,100699.86
2023-05-11T09:23:25.501Z,100699.20
2023-05-11T09:25:56.970Z,100699.17
2023-05-11T09:31:06.970Z,100701.92
2023-05-11T09:33:38.717Z,100698.90
2023-05-11T09:36:24.173Z,100693.64
2023-05-11T09:38:57.369Z,100691.08
2023-05-11T09:41:34.734Z,100685.60
2023-05-11T09:44:13.762Z,100687.89
2023-05-11T09:46:46.545Z,100684.61
2023-05-11T09:49:18.143Z,100689.98
2023-05-11T09:51:50.246Z,100688.84
2023-05-11T09:54:22.615Z,100694.70
2023-05-11T09:56:58.860Z,100702.42
2023-05-11T09:59:42.774Z,100693.08
2023-05-11T10:02:22.844Z,100697.70
2023-05-11T10:04:55.944Z,100692.70
2023-05-11T10:07:33.227Z,100695.73
2023-05-11T10:10:06.112Z,100693.05
2023-05-11T10:12:40.654Z,100691.22
2023-05-11T10:15:14.915Z,100693.52
2023-05-11T10:17:47.296Z,100697.83
2023-05-11T10:20:19.872Z,100694.92
2023-05-11T10:22:55.312Z,100686.74
2023-05-11T10:25:28.024Z,100681.19
2023-05-11T10:28:00.071Z,100684.23
2023-05-11T10:30:33.432Z,100684.98
2023-05-11T10:33:06.764Z,100693.87
2023-05-11T10:35:40.574Z,100698.77
2023-05-11T10:38:13.259Z,100698.42
2023-05-11T10:40:47.186Z,100698.55
2023-05-11T10:43:41.836Z,100693.43
2023-05-11T10:46:23.736Z,100702.12
2023-05-11T10:49:22.271Z,100706.02
2023-05-11T10:52:19.446Z,100700.27
2023-05-11T10:55:08.110Z,100692.14
2023-05-11T10:57:55.711Z,100688.34
2023-05-11T11:01:06.352Z,100684.95
2023-05-11T11:03:38.682Z,100678.27
2023-05-11T11:06:25.951Z,100670.18
2023-05-11T11:09:01.931Z,100666.80
2023-05-11T11:11:35.027Z,100661.76
2023-05-11T11:14:07.698Z,100654.55
2023-05-11T11:16:40.326Z,100651.50
2023-05-11T11:19:38.808Z,100648.60
2023-05-11T11:22:43.471Z,100650.46
2023-05-11T11:25:16.709Z,100651.71
2023-05-11T11:28:01.254Z,100651.02
2023-05-11T11:30:32.572Z,100648.64
2023-05-11T11:33:30.637Z,100641.39
2023-05-11T11:36:02.614Z,100639.95
2023-05-11T11:38:35.332Z,100635.20
2023-05-11T11:41:11.127Z,100636.70
2023-05-11T11:43:54.378Z,100634.20
2023-05-11T11:46:32.504Z,100630.92
2023-05-11T11:49:11.359Z,100621.87
2023-05-11T11:51:43.158Z,100613.11
2023-05-11T11:54:16.063Z,100612.08
2023-05-11T11:56:48.430Z,100613.98
2023-05-11T11:59:19.933Z,100612.16
2023-05-11T12:01:54.925Z,100615.59
2023-05-11T12:04:47.512Z,100610.17
2023-05-11T12:07:20.463Z,100607.11
2023-05-11T12:09:53.074Z,100595.84
2023-05-11T12:12:24.928Z,100596.51
2023-05-11T12:14:56.241Z,100593.19
2023-05-11T12:17:30.958Z,100593.69
2023-05-11T12:20:18.260Z,100586.62
2023-05-11T12:22:50.420Z,100580.79
2023-05-11T12:25:23.606Z,100575.19
2023-05-11T12:27:58.558Z,100574.32
2023-05-11T12:30:34.545Z,100571.14
2023-05-11T12:33:09.690Z,100570.55
2023-05-11T12:35:42.275Z,100563.94
2023-05-11T12:38:13.993Z,100564.41
2023-05-11T12:40:50.417Z,100565.88
2023-05-11T12:43:23.512Z,100566.15
2023-05-11T12:45:54.916Z,100567.05
2023-05-11T12:48:26.277Z,100562.27
2023-05-11T12:50:58.085Z,100562.98
2023-05-11T12:53:36.226Z,100557.46
2023-05-11T12:56:09.028Z,100552.56
2023-05-11T12:58:42.047Z,100552.01
2023-05-11T13:01:13.660Z,100552.05
2023-05-11T13:03:48.969Z,100547.55
2023-05-11T13:06:22.417Z,100543.63
2023-05-11T13:08:54.132Z,100540.80
2023-05-11T13:11:27.519Z,100536.30
2023-05-11T13:13:59.958Z,100536.27
2023-05-11T13:16:33.499Z,100529.11
2023-05-11T13:19:08.428Z,100531.19
2023-05-11T13:21:41.129Z,100522.42
2023-05-11T13:24:22.663Z,100520.23
2023-05-11T13:26:54.848Z,100518.98
2023-05-11T13:29:26.456Z,100516.00
2023-05-11T13:31:57.725Z,100511.70
2023-05-11T13:34:29.358Z,100507.57
2023-05-11T13:37:01.224Z,100510.30
2023-05-11T13:39:33.252Z,100504.44
2023-05-11T13:42:04.433Z,100499.66
2023-05-11T13:44:36.347Z,100499.03
2023-05-11T13:47:08.702Z,100497.62
2023-05-11T13:49:40.857Z,100495.45
2023-05-11T13:52:13.080Z,100494.77
2023-05-11T13:54:44.708Z,100494.10
2023-05-11T13:57:17.012Z,100493.20
2023-05-11T13:59:48.468Z,100494.71
2023-05-11T14:02:19.766Z,100489.33
2023-05-11T14:04:51.539Z,100484.52
2023-05-11T14:07:29.754Z,100482.17
2023-05-11T14:10:08.404Z,100474.50
2023-05-11T14:12:39.878Z,100474.79
2023-05-11T14:15:13.298Z,100469.39
2023-05-11T14:17:44.985Z,100467.48
2023-05-11T14:20:16.892Z,100464.51
2023-05-11T14:22:49.046Z,100457.11
2023-05-11T14:25:20.827Z,100457.20
2023-05-11T14:27:55.948Z,100453.09
2023-05-11T14:30:27.617Z,100455.23
2023-05-11T14:32:59.192Z,100449.23
2023-05-11T14:35:30.751Z,100454.84
2023-05-11T14:38:03.034Z,100451.55
2023-05-11T14:40:34.638Z,100452.73
2023-05-11T14:43:06.731Z,100454.12
2023-05-11T14:45:38.562Z,100451.02
2023-05-11T14:48:10.806Z,100455.48
2023-05-11T14:50:43.335Z,100458.77
2023-05-11T14:53:15.209Z,100462.45
2023-05-11T14:55:46.679Z,100455.77
2023-05-11T14:58:18.019Z,100458.77
2023-05-11T15:00:49.713Z,100458.05
2023-05-11T15:03:21.550Z,100454.30
2023-05-11T15:05:53.236Z,100463.14
2023-05-11T15:08:30.258Z,100459.65
2023-05-11T15:11:02.137Z,100458.33
2023-05-11T15:13:33.593Z,100457.60
2023-05-11T15:16:05.049Z,100460.13
2023-05-11T15:18:36.506Z,100461.73
2023-05-11T15:21:08.239Z,100464.92
2023-05-11T15:23:40.469Z,100465.04
2023-05-11T15:26:11.937Z,100465.23
2023-05-11T15:28:43.274Z,100467.64
2023-05-11T15:31:14.750Z,100474.89
2023-05-11T15:33:46.412Z,100472.67
2023-05-11T15:36:18.566Z,100476.92
2023-05-11T15:38:50.336Z,100478.10
2023-05-11T15:41:22.275Z,100478.95
2023-05-11T15:43:54.882Z,100475.24
2023-05-11T15:46:26.331Z,100476.81
2023-05-11T15:48:59.634Z,100477.66
2023-05-11T15:51:32.169Z,100480.61
2023-05-11T15:54:03.756Z,100480.39
2023-05-11T15:56:35.583Z,100477.04
2023-05-11T15:59:07.039Z,100479.77
2023-05-11T16:01:38.860Z,100489.31
2023-05-11T16:04:10.255Z,100487.18
2023-05-11T16:06:41.872Z,100488.58
2023-05-11T16:09:13.251Z,100491.55
2023-05-11T16:11:46.337Z,100493.73
2023-05-11T16:14:18.300Z,100497.20
2023-05-11T16:16:50.259Z,100498.48
2023-05-11T16:19:21.891Z,100496.36
2023-05-11T16:21:53.476Z,100497.83
2023-05-11T16:24:24.721Z,100497.04
2023-05-11T16:26:56.127Z,100496.85
2023-05-11T16:29:27.958Z,100494.98
2023-05-11T16:31:59.448Z,100495.28
2023-05-11T16:34:31.139Z,100497.23
2023-05-11T16:37:03.683Z,100499.33
2023-05-11T16:39:35.572Z,100497.91
2023-05-11T16:42:07.541Z,100502.36
2023-05-11T16:44:39.064Z,100505.02
2023-05-11T16:47:10.512Z,100505.40
2023-05-11T16:49:42.108Z,100506.54
2023-05-11T16:52:13.520Z,100509.16
2023-05-11T16:54:44.923Z,100512.80
2023-05-11T16:57:16.887Z,100516.45
2023-05-11T16:59:48.364Z,100516.52
2023-05-11T17:02:20.090Z,100526.70
2023-05-11T17:04:51.615Z,100527.53
2023-05-11T17:07:23.016Z,100527.61
2023-05-11T17:09:57.177Z,100532.17
2023-05-11T17:12:32.383Z,100532.21
2023-05-11T17:15:04.231Z,100539.11
2023-05-11T17:17:35.573Z,100541.84
2023-05-11T17:20:10.353Z,100542.87
2023-05-11T17:22:41.723Z,100548.91
2023-05-11T17:25:13.389Z,100552.52
2023-05-11T17:27:45.035Z,100555.61
2023-05-11T17:30:17.755Z,100559.58
2023-05-11T17:32:49.448Z,100561.88
2023-05-11T17:35:21.609Z,100561.25
2023-05-11T17:37:53.221Z,100566.30
2023-05-11T17:40:24.438Z,100570.14
2023-05-11T17:42:56.003Z,100573.52
2023-05-11T17:45:27.645Z,100570.29
2023-05-11T17:47:59.118Z,100577.40
2023-05-11T17:50:30.574Z,100579.67
2023-05-11T17:53:02.660Z,100584.65
2023-05-11T17:55:34.162Z,100587.83
2023-05-11T17:58:05.534Z,100590.60
2023-05-11T18:00:37.280Z,100592.98
2023-05-11T18:03:11.604Z,100593.98
2023-05-11T18:08:18.904Z,100610.12
2023-05-11T18:10:49.961Z,100619.23
2023-05-11T18:13:21.509Z,100631.48
2023-05-11T18:15:52.569Z,100642.58
2023-05-11T18:18:24.155Z,100650.36
2023-05-11T18:20:55.962Z,100656.95
2023-05-11T18:23:28.440Z,100663.28
2023-05-11T18:25:59.927Z,100664.81
2023-05-11T18:28:31.701Z,100663.83
2023-05-11T18:31:03.259Z,100665.75
2023-05-11T18:33:34.998Z,100664.52
2023-05-11T18:36:07.881Z,100664.40
2023-05-11T18:38:39.562Z,100662.56
2023-05-11T18:41:10.773Z,100665.71
2023-05-11T18:43:43.365Z,100676.12
2023-05-11T18:46:14.579Z,100677.73
2023-05-11T18:48:45.809Z,100681.15
2023-05-11T18:51:18.951Z,100682.37
2023-05-11T18:53:50.849Z,100685.66
2023-05-11T18:56:22.522Z,100697.30
2023-05-11T18:58:54.008Z,100705.83
2023-05-11T19:01:30.532Z,100709.43
2023-05-11T19:04:11.479Z,100719.66
2023-05-11T19:06:42.751Z,100725.73
2023-05-11T19:09:14.469Z,100729.61
2023-05-11T19:11:46.427Z,100733.39
2023-05-11T19:14:17.774Z,100738.16
2023-05-11T19:16:49.055Z,100742.85
2023-05-11T19:19:20.545Z,100741.10
2023-05-11T19:21:52.977Z,100742.61
2023-05-11T19:24:24.493Z,100745.70
2023-05-11T19:27:06.782Z,100750.94
2023-05-11T19:29:39.249Z,100752.19
2023-05-11T19:32:10.661Z,100759.73
2023-05-11T19:34:42.052Z,100762.91
2023-05-11T19:37:13.200Z,100766.10
2023-05-11T19:39:45.094Z,100770.42
2023-05-11T19:42:23.402Z,100773.67
2023-05-11T19:44:57.251Z,100775.56
2023-05-11T19:47:28.878Z,100771.83
2023-05-11T19:50:00.021Z,100772.05
2023-05-11T19:52:31.417Z,100770.72
2023-05-11T19:55:02.898Z,100771.55
2023-05-11T19:57:37.448Z,100772.91
2023-05-11T20:00:11.968Z,100773.98
2023-05-11T20:02:43.500Z,100775.99
2023-05-11T20:05:15.123Z,100776.48
2023-05-11T20:07:46.746Z,100781.91
2023-05-11T20:10:18.775Z,100779.36
2023-05-11T20:12:51.534Z,100777.38
2023-05-11T20:15:23.403Z,100777.98
2023-05-11T20:17:55.190Z,100778.58
2023-05-11T20:20:27.596Z,100784.10
2023-05-11T20:23:01.075Z,100781.21
2023-05-11T20:25:32.371Z,100780.10
2023-05-11T20:28:03.722Z,100778.72
2023-05-11T20:30:35.029Z,100776.35
2023-05-11T20:35:41.899Z,100774.67
2023-05-11T20:38:13.436Z,100774.73
2023-05-11T20:40:45.004Z,100770.21
2023-05-11T20:43:16.624Z,100769.09
2023-05-11T20:45:50.103Z,100765.30
2023-05-11T20:48:32.438Z,100767.44
2023-05-11T20:51:10.437Z,100766.88
2023-05-11T20:53:42.733Z,100767.11
2023-05-11T20:56:13.750Z,100767.16
2023-05-11T20:58:47.468Z,100771.13
2023-05-11T21:01:18.912Z,100771.84
2023-05-11T21:03:51.419Z,100777.30
2023-05-11T21:06:22.994Z,100777.91
2023-05-11T21:08:54.594Z,100777.75
2023-05-11T21:11:25.930Z,100774.87
2023-05-11T21:13:57.471Z,100780.66
2023-05-11T21:16:28.928Z,100780.49
2023-05-11T21:19:01.143Z,100780.17
2023-05-11T21:21:33.080Z,100779.69
2023-05-11T21:24:04.834Z,100783.27
2023-05-11T21:26:36.406Z,100783.42
2023-05-11T21:29:07.883Z,100779.45
2023-05-11T21:31:39.368Z,100782.90
2023-05-11T21:34:11.223Z,100779.00
2023-05-11T21:36:43.015Z,100775.16
2023-05-11T21:39:14.974Z,100773.90
2023-05-11T21:41:47.009Z,100772.91
2023-05-11T21:44:18.299Z,100775.06
2023-05-11T21:46:52.262Z,100776.05
2023-05-11T21:49:24.657Z,100774.38
2023-05-11T21:51:56.177Z,100773.94
2023-05-11T21:54:27.886Z,100773.60
2023-05-11T21:56:59.417Z,100772.83
2023-05-11T21:59:30.934Z,100777.08
2023-05-11T22:02:03.300Z,100777.64
2023-05-11T22:04:36.052Z,100775.49
2023-05-11T22:07:08.182Z,100779.17
2023-05-11T22:09:40.442Z,100774.98
2023-05-11T22:12:13.859Z,100777.51
2023-05-11T22:14:46.045Z,100778.90
2023-05-11T22:17:18.313Z,100775.77
2023-05-11T22:19:49.683Z,100777.93
2023-05-11T22:22:21.327Z,100779.52
2023-05-11T22:24:53.652Z,100781.92
2023-05-11T22:27:25.328Z,100784.58
2023-05-11T22:29:56.802Z,100785.95
2023-05-11T22:32:28.080Z,100791.98
2023-05-11T22:35:03.737Z,100794.27
2023-05-11T22:37:34.942Z,100792.27
2023-05-11T22:40:08.155Z,100795.61
2023-05-11T22:42:39.700Z,100796.14
2023-05-11T22:45:13.220Z,100797.48
2023-05-11T22:47:45.714Z,100790.39
2023-05-11T22:50:17.618Z,100792.94
2023-05-11T22:52:49.375Z,100791.71
2023-05-11T22:55:23.108Z,100792.91
2023-05-11T22:57:54.594Z,100790.51
2023-05-11T23:00:27.562Z,100794.21
2023-05-11T23:02:58.941Z,100793.79
2023-05-11T23:05:31.272Z,100792.64
2023-05-11T23:08:02.399Z,100792.55
2023-05-11T23:10:33.759Z,100793.39
2023-05-11T23:13:05.969Z,100791.84
2023-05-11T23:15:37.502Z,100791.53
2023-05-11T23:18:09.141Z,100788.46
2023-05-11T23:20:40.790Z,100789.19
2023-05-11T23:23:11.830Z,100786.15
2023-05-11T23:25:46.518Z,100784.02
2023-05-11T23:28:18.322Z,100784.69
2023-05-11T23:30:50.357Z,100783.33
2023-05-11T23:33:21.847Z,100786.80
2023-05-11T23:35:54.870Z,100785.45
2023-05-11T23:38:27.974Z,100783.51
2023-05-11T23:40:59.427Z,100781.06
2023-05-11T23:43:30.564Z,100780.65
2023-05-11T23:46:02.771Z,100776.11
2023-05-11T23:48:34.256Z,100778.75
2023-05-11T23:51:06.149Z,100779.91
2023-05-11T23:53:38.271Z,100778.29
2023-05-11T23:56:10.753Z,100775.73
2023-05-11T23:58:45.642Z,100775.55
